Time;durP1;ratioP1;P1;durP2;ratioP2;P2;SDS_P1;SDS_P2;PMS_P1;PMS_P2;Temp;Humidity;BMP_temperature;BMP_pressure;BME280_temperature;BME280_humidity;BME280_pressure;Samples;Min_cycle;Max_cycle;Signal;HPM_P1;HPM_P2
2024/04/11 00:00:20;;;;;;;;;;;;;;;6.53;100.00;97071.69;11337953;26;3016;-65
2024/04/11 00:05:24;;;;;;;;;;;;;;;6.62;100.00;97069.59;11324571;26;3112;-67
2024/04/11 00:10:29;;;;;;;;;;;;;;;6.56;100.00;97057.09;11317534;26;3210;-67
2024/04/11 00:15:33;;;;;;;;;;;;;;;6.44;100.00;97060.47;11311826;26;3235;-66
2024/04/11 00:20:37;;;;;;;;;;;;;;;6.36;100.00;97066.06;11315217;26;2845;-67
2024/04/11 00:25:42;;;;;;;;;;;;;;;6.24;100.00;97062.44;11309469;26;2944;-66
2024/04/11 00:30:48;;;;;;;;;;;;;;;6.20;100.00;97058.56;11326224;26;2845;-67
2024/04/11 00:35:52;;;;;;;;;;;;;;;6.18;100.00;97058.78;11320494;26;3100;-68
2024/04/11 00:40:57;;;;;;;;;;;;;;;6.17;100.00;97056.28;11311445;26;3018;-67
2024/04/11 00:46:02;;;;;;;;;;;;;;;6.16;100.00;97052.00;11318345;26;2906;-67
2024/04/11 00:51:06;;;;;;;;;;;;;;;6.13;100.00;97055.09;11304400;26;3148;-68
2024/04/11 00:56:12;;;;;;;;;;;;;;;6.10;100.00;97039.50;11324463;26;3015;-68
2024/04/11 01:01:16;;;;;;;;;;;;;;;6.06;100.00;97043.66;11327047;26;3081;-66
2024/04/11 01:06:21;;;;;;;;;;;;;;;5.90;100.00;97053.72;11316746;25;3030;-67
2024/04/11 01:11:25;;;;;;;;;;;;;;;5.82;100.00;97043.31;11290625;26;3059;-66
2024/04/11 01:16:30;;;;;;;;;;;;;;;5.81;100.00;97051.53;11305651;26;3040;-66
2024/04/11 01:21:35;;;;;;;;;;;;;;;5.77;100.00;97059.13;11313672;25;3112;-67
2024/04/11 01:26:39;;;;;;;;;;;;;;;5.53;100.00;97065.16;11320489;26;3109;-66
2024/04/11 01:31:43;;;;;;;;;;;;;;;5.31;100.00;97068.09;11311157;26;3264;-66
2024/04/11 01:36:47;;;;;;;;;;;;;;;5.17;100.00;97071.00;11323699;26;2980;-66
2024/04/11 01:41:51;;;;;;;;;;;;;;;5.15;100.00;97072.03;11315565;26;3403;-74
2024/04/11 01:46:56;;;;;;;;;;;;;;;5.08;100.00;97073.88;11319505;26;3630;-66
2024/04/11 01:52:09;;;;;;;;;;;;;;;5.10;100.00;97071.03;11318417;26;2948;-67
2024/04/11 01:57:14;;;;;;;;;;;;;;;5.11;100.00;97070.00;11328405;26;3113;-67
2024/04/11 02:02:18;;;;;;;;;;;;;;;5.13;100.00;97063.41;11329604;25;3132;-67
2024/04/11 02:07:26;;;;;;;;;;;;;;;5.07;100.00;97058.91;11320995;25;3103;-67
2024/04/11 02:12:30;;;;;;;;;;;;;;;4.95;100.00;97054.41;11316921;26;3160;-66
2024/04/11 02:17:35;;;;;;;;;;;;;;;4.88;100.00;97054.41;11313754;25;3112;-66
2024/04/11 02:22:39;;;;;;;;;;;;;;;4.94;100.00;97039.47;11324774;26;3194;-66
2024/04/11 02:27:44;;;;;;;;;;;;;;;5.04;100.00;97032.69;11330716;26;2861;-67
2024/04/11 02:32:48;;;;;;;;;;;;;;;5.10;100.00;97039.84;11320711;26;3575;-67
2024/04/11 02:37:53;;;;;;;;;;;;;;;5.11;100.00;97040.66;11312525;26;3115;-66
2024/04/11 02:42:57;;;;;;;;;;;;;;;5.25;100.00;97042.28;11328441;25;3259;-67
2024/04/11 02:48:03;;;;;;;;;;;;;;;5.15;100.00;97047.22;11310434;25;3037;-68
2024/04/11 02:53:09;;;;;;;;;;;;;;;5.17;100.00;97047.03;11335992;26;3080;-67
2024/04/11 02:58:14;;;;;;;;;;;;;;;5.20;100.00;97050.06;11329562;26;3208;-65
2024/04/11 03:03:18;;;;;;;;;;;;;;;5.13;100.00;97046.59;11319197;26;2924;-67
2024/04/11 03:08:23;;;;;;;;;;;;;;;5.07;100.00;97045.59;11317573;26;3076;-67
2024/04/11 03:13:27;;;;;;;;;;;;;;;5.04;100.00;97045.19;11316298;26;3475;-67
2024/04/11 03:18:32;;;;;;;;;;;;;;;5.15;100.00;97034.72;11326547;26;3211;-67
2024/04/11 03:23:40;;;;;;;;;;;;;;;5.05;100.00;97034.31;11324058;26;2920;-67
2024/04/11 03:28:44;;;;;;;;;;;;;;;5.03;100.00;97038.22;11311082;26;2936;-67
2024/04/11 03:33:50;;;;;;;;;;;;;;;5.06;100.00;97035.13;11330114;26;3210;-66
2024/04/11 03:38:55;;;;;;;;;;;;;;;5.02;100.00;97034.72;11336182;26;3113;-66
2024/04/11 03:44:00;;;;;;;;;;;;;;;5.09;100.00;97032.88;11326347;26;3234;-67
2024/04/11 03:49:04;;;;;;;;;;;;;;;5.05;100.00;97041.50;11315844;26;2817;-67
2024/04/11 03:54:09;;;;;;;;;;;;;;;4.93;100.00;97043.97;11322905;26;3089;-66
2024/04/11 03:59:13;;;;;;;;;;;;;;;4.92;100.00;97044.19;11319024;26;3118;-67
2024/04/11 04:04:19;;;;;;;;;;;;;;;4.91;100.00;97050.53;11307332;26;3113;-67
2024/04/11 04:09:25;;;;;;;;;;;;;;;4.96;100.00;97042.72;11316127;26;3231;-69
2024/04/11 04:14:30;;;;;;;;;;;;;;;4.92;100.00;97041.53;11321445;26;2978;-66
2024/04/11 04:19:37;;;;;;;;;;;;;;;4.96;100.00;97040.06;11310711;26;2984;-67
2024/04/11 04:24:41;;;;;;;;;;;;;;;4.88;100.00;97047.25;11322849;25;2979;-68
2024/04/11 04:29:46;;;;;;;;;;;;;;;4.82;100.00;97053.41;11315197;25;3085;-66
2024/04/11 04:34:51;;;;;;;;;;;;;;;4.84;100.00;97054.03;11325845;26;2944;-69
2024/04/11 04:39:55;;;;;;;;;;;;;;;4.83;100.00;97065.69;11310509;25;3129;-67
2024/04/11 04:45:00;;;;;;;;;;;;;;;5.05;100.00;97068.97;11310180;26;3103;-69
2024/04/11 04:50:06;;;;;;;;;;;;;;;5.02;100.00;97074.69;11315576;26;2881;-66
2024/04/11 04:55:10;;;;;;;;;;;;;;;5.15;100.00;97084.53;11309154;26;2893;-68
2024/04/11 05:00:14;;;;;;;;;;;;;;;5.29;100.00;97075.50;11289095;26;2817;-68
2024/04/11 05:05:20;;;;;;;;;;;;;;;5.46;100.00;97075.03;11317305;26;3077;-66
2024/04/11 05:10:26;;;;;;;;;;;;;;;5.69;100.00;97073.53;11312341;26;2980;-67
2024/04/11 05:15:31;;;;;;;;;;;;;;;5.81;100.00;97067.53;11314939;25;3166;-69
2024/04/11 05:20:36;;;;;;;;;;;;;;;6.02;100.00;97072.59;11312609;26;2841;-75
2024/04/11 05:25:43;;;;;;;;;;;;;;;5.89;100.00;97081.47;11300862;26;3132;-68
2024/04/11 05:30:48;;;;;;;;;;;;;;;6.14;100.00;97088.78;11312759;26;3040;-69
2024/04/11 05:35:52;;;;;;;;;;;;;;;6.43;100.00;97088.22;11316896;26;3226;-70
2024/04/11 05:40:57;;;;;;;;;;;;;;;6.55;100.00;97090.16;11312997;26;3038;-69
2024/04/11 05:46:02;;;;;;;;;;;;;;;7.08;100.00;97085.25;11318174;26;3152;-69
2024/04/11 05:51:07;;;;;;;;;;;;;;;7.07;100.00;97093.50;11320620;26;3108;-68
2024/04/11 05:56:12;;;;;;;;;;;;;;;7.25;100.00;97101.53;11363753;25;3099;-70
2024/04/11 06:01:17;;;;;;;;;;;;;;;7.08;100.00;97105.81;11379495;25;3326;-68
2024/04/11 06:06:22;;;;;;;;;;;;;;;6.81;100.00;97111.38;11409012;25;2919;-69
2024/04/11 06:11:26;;;;;;;;;;;;;;;7.25;100.00;97121.09;11404996;25;3168;-68
2024/04/11 06:16:31;;;;;;;;;;;;;;;7.43;100.00;97120.31;11415412;25;3091;-66
2024/04/11 06:21:36;;;;;;;;;;;;;;;7.29;100.00;97124.16;11408811;25;3125;-68
2024/04/11 06:26:41;;;;;;;;;;;;;;;7.85;100.00;97128.53;11384500;25;3001;-68
2024/04/11 06:31:46;;;;;;;;;;;;;;;7.96;100.00;97129.66;11404196;25;2807;-75
2024/04/11 06:36:51;;;;;;;;;;;;;;;8.35;100.00;97125.66;11391230;25;3162;-76
2024/04/11 06:41:55;;;;;;;;;;;;;;;8.53;100.00;97130.19;11396367;25;2955;-69
2024/04/11 06:46:59;;;;;;;;;;;;;;;8.39;100.00;97135.72;11397458;25;2835;-69
2024/04/11 06:52:05;;;;;;;;;;;;;;;8.63;100.00;97125.91;11382626;25;3032;-69
2024/04/11 06:57:11;;;;;;;;;;;;;;;8.81;100.00;97143.81;11380523;25;3202;-68
2024/04/11 07:02:16;;;;;;;;;;;;;;;9.26;100.00;97131.78;11389652;25;3157;-68
2024/04/11 07:07:20;;;;;;;;;;;;;;;8.77;100.00;97141.81;11386327;25;3175;-67
2024/04/11 07:12:28;;;;;;;;;;;;;;;9.03;100.00;97143.25;11390259;25;2953;-71
2024/04/11 07:17:33;;;;;;;;;;;;;;;9.58;100.00;97141.13;11385983;25;3171;-71
2024/04/11 07:22:44;;;;;;;;;;;;;;;9.59;100.00;97145.44;11386168;25;3202;-68
2024/04/11 07:27:49;;;;;;;;;;;;;;;9.70;100.00;97138.44;11380125;25;3225;-69
2024/04/11 07:32:56;;;;;;;;;;;;;;;9.92;100.00;97136.75;11369832;25;2977;-66
2024/04/11 07:38:02;;;;;;;;;;;;;;;10.13;100.00;97151.47;11356287;25;3027;-67
2024/04/11 07:43:09;;;;;;;;;;;;;;;10.37;100.00;97151.41;11359150;25;2957;-67
2024/04/11 07:48:17;;;;;;;;;;;;;;;10.47;100.00;97159.69;11404011;25;3075;-68
2024/04/11 07:53:26;;;;;;;;;;;;;;;10.83;100.00;97162.00;11396033;25;2950;-67
2024/04/11 07:58:30;;;;;;;;;;;;;;;10.87;100.00;97156.13;11390438;25;2922;-67
2024/04/11 08:03:34;;;;;;;;;;;;;;;10.37;100.00;97162.16;11392116;25;3133;-69
2024/04/11 08:08:40;;;;;;;;;;;;;;;10.38;100.00;97159.25;11385317;25;3125;-66
2024/04/11 08:13:47;;;;;;;;;;;;;;;11.10;100.00;97158.72;11363359;25;2944;-68
2024/04/11 08:18:52;;;;;;;;;;;;;;;11.53;100.00;97170.72;11390356;25;3028;-69
2024/04/11 08:23:56;;;;;;;;;;;;;;;11.11;100.00;97168.41;11389902;25;3112;-68
2024/04/11 08:29:00;;;;;;;;;;;;;;;11.29;100.00;97176.25;11359305;25;2551;-68
2024/04/11 08:34:12;;;;;;;;;;;;;;;11.31;100.00;97167.94;11386595;25;3144;-68
2024/04/11 08:39:16;;;;;;;;;;;;;;;11.62;100.00;97169.25;11368039;25;3134;-68
2024/04/11 08:44:21;;;;;;;;;;;;;;;11.81;100.00;97162.56;11380000;25;2823;-68
2024/04/11 08:49:25;;;;;;;;;;;;;;;12.23;100.00;97183.63;11384271;25;3166;-70
2024/04/11 08:54:30;;;;;;;;;;;;;;;11.93;100.00;97175.13;11391077;25;3090;-68
2024/04/11 08:59:34;;;;;;;;;;;;;;;11.67;100.00;97180.09;11374916;25;3058;-68
2024/04/11 09:04:39;;;;;;;;;;;;;;;12.14;100.00;97172.44;11381457;25;2968;-68
2024/04/11 09:09:44;;;;;;;;;;;;;;;12.23;100.00;97180.13;11383204;25;2777;-69
2024/04/11 09:14:49;;;;;;;;;;;;;;;12.75;100.00;97183.19;11379314;25;2963;-69
2024/04/11 09:19:53;;;;;;;;;;;;;;;12.94;100.00;97179.06;11385676;25;2916;-70
2024/04/11 09:24:57;;;;;;;;;;;;;;;12.22;100.00;97182.00;11383938;25;3123;-69
2024/04/11 09:30:03;;;;;;;;;;;;;;;12.42;100.00;97195.75;11378701;25;2832;-68
2024/04/11 09:35:10;;;;;;;;;;;;;;;12.35;100.00;97189.72;11351035;25;2983;-69
2024/04/11 09:40:19;;;;;;;;;;;;;;;12.51;100.00;97198.00;11348221;25;2941;-67
2024/04/11 09:45:24;;;;;;;;;;;;;;;13.12;100.00;97196.00;11380244;25;3092;-68
2024/04/11 09:50:30;;;;;;;;;;;;;;;13.08;100.00;97197.56;11387272;25;3070;-69
2024/04/11 09:55:38;;;;;;;;;;;;;;;12.78;100.00;97193.47;11378958;25;3572;-68
2024/04/11 10:01:04;;;;;;;;;;;;;;;13.05;100.00;97187.28;11374899;25;3048;-68
2024/04/11 10:06:11;;;;;;;;;;;;;;;12.70;100.00;97180.44;11378972;25;2934;-69
2024/04/11 10:11:17;;;;;;;;;;;;;;;13.01;100.00;97186.16;11389777;25;3161;-70
2024/04/11 10:16:29;;;;;;;;;;;;;;;13.21;100.00;97184.50;11347638;25;3093;-69
2024/04/11 10:21:35;;;;;;;;;;;;;;;13.33;100.00;97180.81;11391801;25;3030;-70
2024/04/11 10:26:54;;;;;;;;;;;;;;;14.05;100.00;97186.50;11383838;25;3215;-69
2024/04/11 10:32:00;;;;;;;;;;;;;;;13.98;100.00;97177.00;11384518;25;3212;-69
2024/04/11 10:37:07;;;;;;;;;;;;;;;14.45;100.00;97185.09;11383941;25;3118;-70
2024/04/11 10:42:13;;;;;;;;;;;;;;;13.96;100.00;97182.66;11378205;25;3039;-69
2024/04/11 10:47:18;;;;;;;;;;;;;;;14.50;100.00;97176.22;11386550;25;3018;-67
2024/04/11 10:52:24;;;;;;;;;;;;;;;15.90;100.00;97183.22;11390287;25;2915;-70
2024/04/11 10:57:29;;;;;;;;;;;;;;;14.79;100.00;97180.13;11387514;25;3105;-69
2024/04/11 11:02:37;;;;;;;;;;;;;;;14.34;100.00;97186.13;11384260;25;3175;-72
2024/04/11 11:07:42;;;;;;;;;;;;;;;14.79;100.00;97195.53;11386687;25;3066;-70
2024/04/11 11:12:49;;;;;;;;;;;;;;;14.94;100.00;97184.75;11385115;25;3151;-71
2024/04/11 11:17:54;;;;;;;;;;;;;;;15.42;100.00;97188.09;11405744;25;2688;-69
2024/04/11 11:22:59;;;;;;;;;;;;;;;14.88;100.00;97177.69;11375518;25;3136;-70
2024/04/11 11:28:12;;;;;;;;;;;;;;;15.34;100.00;97186.75;11385179;25;3047;-70
2024/04/11 11:33:17;;;;;;;;;;;;;;;15.60;100.00;97168.59;11365691;25;3116;-69
2024/04/11 11:38:22;;;;;;;;;;;;;;;16.03;100.00;97171.84;11397815;25;3220;-68
2024/04/11 11:43:27;;;;;;;;;;;;;;;16.59;100.00;97168.94;11366705;25;3198;-71
2024/04/11 11:48:32;;;;;;;;;;;;;;;17.05;97.57;97166.03;11390820;25;2988;-70
2024/04/11 11:53:45;;;;;;;;;;;;;;;16.28;100.00;97164.69;11346029;25;2997;-69
2024/04/11 11:58:50;;;;;;;;;;;;;;;16.38;98.04;97165.50;11325100;25;3207;-69
2024/04/11 12:03:55;;;;;;;;;;;;;;;16.86;93.19;97167.75;11398385;25;3114;-69
2024/04/11 12:09:09;;;;;;;;;;;;;;;16.02;100.00;97163.97;11386796;25;3024;-69
2024/04/11 12:14:22;;;;;;;;;;;;;;;15.87;100.00;97156.66;11392316;25;2995;-70
2024/04/11 12:19:28;;;;;;;;;;;;;;;15.82;100.00;97167.50;11385475;25;2996;-70
2024/04/11 12:24:33;;;;;;;;;;;;;;;16.14;100.00;97157.16;11396033;25;3112;-73
2024/04/11 12:29:40;;;;;;;;;;;;;;;16.98;98.23;97154.66;11371537;25;2529;-71
2024/04/11 12:34:45;;;;;;;;;;;;;;;16.84;97.82;97150.94;11375245;25;3159;-72
2024/04/11 12:39:53;;;;;;;;;;;;;;;15.89;100.00;97152.59;11384976;25;3067;-73
2024/04/11 12:45:07;;;;;;;;;;;;;;;16.28;100.00;97145.72;11397907;25;3107;-71
2024/04/11 12:50:13;;;;;;;;;;;;;;;15.44;100.00;97147.97;11399860;25;3228;-69
2024/04/11 12:55:24;;;;;;;;;;;;;;;16.25;100.00;97144.38;11383411;25;2912;-72
2024/04/11 13:00:43;;;;;;;;;;;;;;;16.39;99.57;97144.59;11396080;25;3032;-70
2024/04/11 13:05:54;;;;;;;;;;;;;;;15.67;100.00;97142.06;11405176;25;3000;-72
2024/04/11 13:11:06;;;;;;;;;;;;;;;16.21;100.00;97135.97;11359372;25;3019;-71
2024/04/11 13:16:12;;;;;;;;;;;;;;;15.99;100.00;97121.94;11388281;25;3187;-71
2024/04/11 13:21:30;;;;;;;;;;;;;;;15.46;100.00;97123.31;11395169;25;2897;-72
2024/04/11 13:26:50;;;;;;;;;;;;;;;16.20;100.00;97117.25;11381701;25;3154;-70
2024/04/11 13:31:57;;;;;;;;;;;;;;;16.14;100.00;97119.16;11389174;25;3215;-71
2024/04/11 13:37:03;;;;;;;;;;;;;;;16.39;100.00;97122.88;11395647;25;2831;-70
2024/04/11 13:42:13;;;;;;;;;;;;;;;16.06;100.00;97117.03;11380914;25;3205;-72
2024/04/11 13:47:22;;;;;;;;;;;;;;;15.52;100.00;97119.53;11387858;25;3008;-71
2024/04/11 13:52:26;;;;;;;;;;;;;;;15.06;100.00;97114.91;11383075;25;3097;-71
2024/04/11 13:57:32;;;;;;;;;;;;;;;15.02;100.00;97118.44;11384151;25;2911;-71
2024/04/11 14:07:54;;;;;;;;;;;;;;;14.49;100.00;97123.19;11338691;25;3111;-71
2024/04/11 14:12:58;;;;;;;;;;;;;;;15.18;100.00;97111.13;11374638;25;3401;-70
2024/04/11 14:18:02;;;;;;;;;;;;;;;15.33;100.00;97120.09;11378654;25;2974;-70
2024/04/11 14:23:32;;;;;;;;;;;;;;;15.21;100.00;97118.75;11358155;25;3213;-70
2024/04/11 14:28:43;;;;;;;;;;;;;;;15.20;100.00;97111.66;11387235;25;2996;-68
2024/04/11 14:39:08;;;;;;;;;;;;;;;15.58;100.00;97102.97;11399075;25;3000;-70
2024/04/11 14:44:18;;;;;;;;;;;;;;;15.37;100.00;97099.50;11392384;25;3028;-70
2024/04/11 14:49:26;;;;;;;;;;;;;;;15.11;100.00;97095.16;11387247;25;3153;-69
2024/04/11 14:54:35;;;;;;;;;;;;;;;15.68;100.00;97096.78;11388827;25;3121;-70
2024/04/11 14:59:42;;;;;;;;;;;;;;;15.37;100.00;97095.97;11400908;25;2934;-70
2024/04/11 15:04:51;;;;;;;;;;;;;;;15.56;100.00;97088.91;11360418;25;3307;-70
2024/04/11 15:09:59;;;;;;;;;;;;;;;15.83;100.00;97087.78;11401685;25;3240;-69
2024/04/11 15:15:04;;;;;;;;;;;;;;;16.06;100.00;97084.47;11392971;25;2815;-70
2024/04/11 15:20:21;;;;;;;;;;;;;;;15.52;100.00;97081.59;11401959;25;3045;-69
2024/04/11 15:25:31;;;;;;;;;;;;;;;15.38;100.00;97082.13;11398714;25;3118;-69
2024/04/11 15:30:49;;;;;;;;;;;;;;;15.19;100.00;97088.38;11389946;25;3114;-70
2024/04/11 15:35:56;;;;;;;;;;;;;;;14.87;100.00;97094.84;11344849;25;3076;-70
2024/04/11 15:41:07;;;;;;;;;;;;;;;15.10;100.00;97090.81;11392851;25;2863;-70
2024/04/11 15:46:18;;;;;;;;;;;;;;;14.71;100.00;97088.63;11396385;25;3303;-68
2024/04/11 15:51:23;;;;;;;;;;;;;;;14.73;100.00;97091.84;11395649;25;2848;-69
2024/04/11 15:56:34;;;;;;;;;;;;;;;14.96;100.00;97092.44;11384107;25;3121;-69
2024/04/11 16:01:39;;;;;;;;;;;;;;;14.95;100.00;97086.22;11398568;25;3667;-71
2024/04/11 16:06:48;;;;;;;;;;;;;;;14.97;100.00;97089.47;11392710;25;3011;-72
2024/04/11 16:11:58;;;;;;;;;;;;;;;14.52;100.00;97103.72;11355389;25;3263;-72
2024/04/11 16:17:02;;;;;;;;;;;;;;;14.79;100.00;97095.41;11383033;25;2928;-71
2024/04/11 16:22:13;;;;;;;;;;;;;;;14.64;100.00;97089.97;11380098;25;2966;-74
2024/04/11 16:27:17;;;;;;;;;;;;;;;14.36;100.00;97099.28;11376725;25;3347;-74
2024/04/11 16:32:22;;;;;;;;;;;;;;;14.34;100.00;97088.75;11382782;25;3109;-71
2024/04/11 16:37:34;;;;;;;;;;;;;;;14.30;100.00;97090.34;11395479;25;3203;-72
2024/04/11 16:42:39;;;;;;;;;;;;;;;14.14;100.00;97086.78;11355927;25;3212;-72
2024/04/11 16:47:46;;;;;;;;;;;;;;;13.98;100.00;97091.28;11374671;25;3184;-75
2024/04/11 16:52:53;;;;;;;;;;;;;;;13.88;100.00;97095.84;11346374;25;3078;-74
2024/04/11 16:58:10;;;;;;;;;;;;;;;13.90;100.00;97086.41;11372902;25;2940;-77
2024/04/11 17:03:15;;;;;;;;;;;;;;;13.83;100.00;97095.81;11370599;25;3091;-73
2024/04/11 17:08:26;;;;;;;;;;;;;;;13.63;100.00;97091.91;11389244;25;3496;-72
2024/04/11 17:13:32;;;;;;;;;;;;;;;13.62;100.00;97093.00;11340266;25;3114;-73
2024/04/11 17:18:52;;;;;;;;;;;;;;;13.44;100.00;97096.94;11324259;25;3095;-71
2024/04/11 17:23:58;;;;;;;;;;;;;;;13.32;100.00;97101.69;11335906;25;2957;-68
2024/04/11 17:29:04;;;;;;;;;;;;;;;13.21;100.00;97110.78;11380302;25;3260;-69
2024/04/11 17:34:15;;;;;;;;;;;;;;;13.06;100.00;97114.16;11388458;25;3140;-70
2024/04/11 17:39:49;;;;;;;;;;;;;;;12.95;100.00;97110.53;11381475;25;3204;-69
2024/04/11 17:45:01;;;;;;;;;;;;;;;12.79;100.00;97114.16;11369141;25;3212;-69
2024/04/11 17:50:08;;;;;;;;;;;;;;;12.65;100.00;97113.72;11368093;25;2999;-69
2024/04/11 17:55:24;;;;;;;;;;;;;;;12.45;100.00;97118.91;11387729;25;3134;-67
2024/04/11 18:00:37;;;;;;;;;;;;;;;12.30;100.00;97126.84;11397862;25;3102;-70
2024/04/11 18:05:47;;;;;;;;;;;;;;;12.23;100.00;97127.03;11395729;25;3204;-70
2024/04/11 18:10:58;;;;;;;;;;;;;;;12.23;100.00;97137.00;11387275;25;2844;-68
2024/04/11 18:16:08;;;;;;;;;;;;;;;11.99;100.00;97139.09;11390669;25;3248;-69
2024/04/11 18:21:25;;;;;;;;;;;;;;;11.86;100.00;97143.78;11370775;25;3202;-68
2024/04/11 18:26:30;;;;;;;;;;;;;;;11.76;100.00;97148.97;11368268;25;3328;-69
2024/04/11 18:31:41;;;;;;;;;;;;;;;11.68;100.00;97149.41;11363280;25;3204;-69
2024/04/11 18:36:45;;;;;;;;;;;;;;;11.45;100.00;97153.13;11378322;25;2863;-69
2024/04/11 18:41:57;;;;;;;;;;;;;;;11.41;100.00;97153.84;11384776;25;3226;-69
2024/04/11 18:47:24;;;;;;;;;;;;;;;11.51;100.00;97159.38;11385253;25;3171;-68
2024/04/11 18:52:25;;;;;;;;;;;;;;;11.25;100.00;97158.97;11364024;25;3125;-69
2024/04/11 18:57:31;;;;;;;;;;;;;;;11.04;100.00;97151.59;11357879;25;3102;-68
2024/04/11 19:02:35;;;;;;;;;;;;;;;11.00;100.00;97161.22;11357336;25;3396;-72
2024/04/11 19:07:39;;;;;;;;;;;;;;;10.88;100.00;97168.53;11383441;25;2988;-69
2024/04/11 19:12:44;;;;;;;;;;;;;;;10.77;100.00;97172.91;11360706;25;3233;-67
2024/04/11 19:17:53;;;;;;;;;;;;;;;10.73;100.00;97169.88;11380067;25;3086;-67
2024/04/11 19:23:03;;;;;;;;;;;;;;;10.75;100.00;97172.31;11343227;25;3135;-68
2024/04/11 19:28:13;;;;;;;;;;;;;;;10.72;100.00;97170.94;11369660;25;3107;-68
2024/04/11 19:33:26;;;;;;;;;;;;;;;10.58;100.00;97180.34;11389604;25;3114;-68
2024/04/11 19:38:37;;;;;;;;;;;;;;;10.53;100.00;97174.88;11360507;25;2957;-68
2024/04/11 19:43:42;;;;;;;;;;;;;;;10.43;100.00;97177.34;11348068;25;3231;-69
2024/04/11 19:48:48;;;;;;;;;;;;;;;10.35;100.00;97185.78;11380266;25;2931;-69
2024/04/11 19:53:54;;;;;;;;;;;;;;;10.27;100.00;97186.97;11382279;25;3236;-69
2024/04/11 19:59:00;;;;;;;;;;;;;;;10.18;100.00;97186.50;11374977;25;3245;-69
2024/04/11 20:04:19;;;;;;;;;;;;;;;10.13;100.00;97196.31;11381448;25;3184;-69
2024/04/11 20:09:24;;;;;;;;;;;;;;;10.00;100.00;97183.97;11353150;25;2887;-69
2024/04/11 20:14:32;;;;;;;;;;;;;;;9.99;100.00;97193.06;11357221;25;2543;-68
2024/04/11 20:19:39;;;;;;;;;;;;;;;9.94;100.00;97198.31;11382164;25;3117;-68
2024/04/11 20:24:52;;;;;;;;;;;;;;;9.91;100.00;97198.78;11385053;25;3023;-69
2024/04/11 20:29:57;;;;;;;;;;;;;;;9.84;100.00;97206.97;11376263;25;3227;-68
2024/04/11 20:35:22;;;;;;;;;;;;;;;9.82;100.00;97206.38;11391051;25;3091;-68
2024/04/11 20:40:33;;;;;;;;;;;;;;;9.78;100.00;97201.69;11359415;25;3108;-68
2024/04/11 20:45:45;;;;;;;;;;;;;;;9.72;100.00;97203.44;11387341;25;2980;-69
2024/04/11 21:33:33;;;;;;;;;;;;;;;9.31;100.00;97191.75;11373171;25;3116;-69
2024/04/11 21:38:40;;;;;;;;;;;;;;;9.33;100.00;97204.94;11392200;25;2968;-71
2024/04/11 21:43:48;;;;;;;;;;;;;;;9.28;100.00;97199.44;11347544;25;2910;-68
2024/04/11 21:48:53;;;;;;;;;;;;;;;9.23;100.00;97200.13;11387873;25;3036;-68
2024/04/11 21:53:59;;;;;;;;;;;;;;;9.16;100.00;97200.25;11388083;25;3237;-71
2024/04/11 21:59:08;;;;;;;;;;;;;;;9.16;100.00;97200.25;11392730;25;3107;-69
2024/04/11 22:04:13;;;;;;;;;;;;;;;9.10;100.00;97203.84;11389252;25;3332;-71
2024/04/11 22:09:26;;;;;;;;;;;;;;;9.05;100.00;97198.34;11395121;25;2932;-70
2024/04/11 22:15:04;;;;;;;;;;;;;;;9.04;100.00;97212.81;10950514;26;3427;-71
2024/04/11 22:20:13;;;;;;;;;;;;;;;8.95;100.00;97214.16;10944219;26;3051;-68
2024/04/11 22:25:17;;;;;;;;;;;;;;;8.93;100.00;97202.84;10951896;26;2994;-67
2024/04/11 22:30:25;;;;;;;;;;;;;;;8.89;100.00;97207.00;10945608;26;3158;-67
2024/04/11 22:35:30;;;;;;;;;;;;;;;8.87;100.00;97211.78;10949418;26;2947;-67
2024/04/11 22:40:42;;;;;;;;;;;;;;;8.82;100.00;97206.28;10951195;26;3001;-66
2024/04/11 22:45:46;;;;;;;;;;;;;;;8.89;100.00;97209.69;10957418;26;3102;-68
2024/04/11 22:50:51;;;;;;;;;;;;;;;8.79;100.00;97212.13;10958077;26;3075;-69
2024/04/11 22:55:57;;;;;;;;;;;;;;;8.72;100.00;97216.75;10958245;26;3039;-69
2024/04/11 23:01:02;;;;;;;;;;;;;;;8.66;100.00;97216.63;10960926;26;3619;-67
2024/04/11 23:06:06;;;;;;;;;;;;;;;8.58;100.00;97208.84;10975276;26;3050;-67
2024/04/11 23:11:11;;;;;;;;;;;;;;;8.56;100.00;97221.69;10956114;26;3052;-69
2024/04/11 23:16:16;;;;;;;;;;;;;;;8.52;100.00;97215.13;10960944;26;3214;-68
2024/04/11 23:21:20;;;;;;;;;;;;;;;8.47;100.00;97209.63;10958105;26;3226;-67
2024/04/11 23:26:25;;;;;;;;;;;;;;;8.48;100.00;97211.28;10959227;26;3241;-68
2024/04/11 23:31:35;;;;;;;;;;;;;;;8.51;100.00;97202.75;10953015;26;3056;-68
2024/04/11 23:36:40;;;;;;;;;;;;;;;8.55;100.00;97192.44;10954940;26;3027;-68
2024/04/11 23:41:49;;;;;;;;;;;;;;;8.52;100.00;97192.88;10951630;26;3421;-68
2024/04/11 23:46:55;;;;;;;;;;;;;;;8.47;100.00;97201.59;10952787;26;3134;-69
2024/04/11 23:52:05;;;;;;;;;;;;;;;8.43;100.00;97197.72;10943936;26;3167;-69
2024/04/11 23:57:10;;;;;;;;;;;;;;;8.36;100.00;97188.94;10956693;26;3126;-67
